Time;durP1;ratioP1;P1;durP2;ratioP2;P2;SDS_P1;SDS_P2;PMS_P1;PMS_P2;Temp;Humidity;BMP_temperature;BMP_pressure;BME280_temperature;BME280_humidity;BME280_pressure;Samples;Min_cycle;Max_cycle;Signal;HPM_P1;HPM_P2
2023/08/12 00:01:24;;;;;;;5.00;3.00;;;;;;;23.89;51.77;101005.25;4971666;28;20479;-86
2023/08/12 00:03:50;;;;;;;8.98;3.20;;;;;;;23.96;51.79;101011.66;4971687;28;20027;-86
2023/08/12 00:06:16;;;;;;;11.55;3.63;;;;;;;23.92;51.37;101007.59;4972081;28;20041;-88
2023/08/12 00:08:41;;;;;;;6.15;3.42;;;;;;;23.89;51.78;101008.84;4973574;28;20510;-88
2023/08/12 00:11:07;;;;;;;11.63;3.50;;;;;;;23.89;51.73;100997.88;4972468;28;20041;-86
2023/08/12 00:13:32;;;;;;;6.20;3.38;;;;;;;23.84;51.37;100995.75;4973335;28;20121;-87
2023/08/12 00:15:57;;;;;;;13.38;4.20;;;;;;;23.85;51.52;101002.91;4972758;28;20027;-87
2023/08/12 00:18:23;;;;;;;4.38;3.22;;;;;;;23.75;51.63;100988.72;4973833;28;20030;-86
2023/08/12 00:20:49;;;;;;;16.88;4.38;;;;;;;23.81;51.82;101007.13;4974079;28;20034;-85
2023/08/12 00:23:14;;;;;;;18.33;4.82;;;;;;;23.76;52.04;100998.63;4973777;28;20027;-86
2023/08/12 00:25:39;;;;;;;7.78;4.07;;;;;;;23.74;51.89;101000.75;4973192;28;20410;-88
2023/08/12 00:28:05;;;;;;;7.50;3.47;;;;;;;23.60;52.00;100990.72;4972218;28;20042;-87
2023/08/12 00:30:30;;;;;;;10.98;4.78;;;;;;;23.61;52.26;100992.41;4972986;28;20588;-86
2023/08/12 00:32:56;;;;;;;14.85;4.13;;;;;;;23.57;52.21;100985.63;4972646;28;20116;-87
2023/08/12 00:35:21;;;;;;;9.95;4.68;;;;;;;23.57;52.61;101002.13;4972584;28;20023;-88
2023/08/12 00:37:47;;;;;;;7.75;4.22;;;;;;;23.56;52.73;101007.78;4971678;28;20027;-87
2023/08/12 00:40:13;;;;;;;13.20;4.30;;;;;;;23.54;52.75;101010.75;4971746;28;20376;-87
2023/08/12 00:42:38;;;;;;;9.38;4.13;;;;;;;23.52;52.75;100996.34;4971350;28;20023;-87
2023/08/12 00:45:10;;;;;;;20.95;4.53;;;;;;;23.49;52.80;101004.13;4972815;28;20437;-88
2023/08/12 00:47:36;;;;;;;14.13;4.33;;;;;;;23.44;52.84;100993.75;4972588;28;20039;-87
2023/08/12 00:50:02;;;;;;;12.82;3.85;;;;;;;23.47;53.10;100998.84;4992433;28;20022;-87
2023/08/12 00:52:27;;;;;;;7.03;4.20;;;;;;;23.48;52.92;100994.22;4994361;28;20031;-85
2023/08/12 00:54:53;;;;;;;10.07;3.70;;;;;;;23.51;53.03;100991.94;4995428;28;20023;-87
2023/08/12 00:57:19;;;;;;;12.30;4.15;;;;;;;23.46;53.00;100996.28;4996259;28;20119;-87
2023/08/12 00:59:44;;;;;;;8.88;3.97;;;;;;;23.42;53.09;100990.38;4996188;28;20031;-87
2023/08/12 01:02:12;;;;;;;8.85;4.10;;;;;;;23.48;53.19;100995.06;4996298;28;20038;-87
2023/08/12 01:04:37;;;;;;;21.27;4.93;;;;;;;23.46;53.40;100997.16;4988297;28;20034;-87
2023/08/12 01:07:03;;;;;;;7.28;4.20;;;;;;;23.46;53.10;100996.28;4990745;28;20026;-87
2023/08/12 01:09:30;;;;;;;6.57;4.03;;;;;;;23.46;53.09;100994.41;4996371;28;20102;-87
2023/08/12 01:11:55;;;;;;;5.93;4.18;;;;;;;23.46;53.31;101010.03;4996110;28;20061;-87
2023/08/12 01:14:45;;;;;;;10.63;4.55;;;;;;;23.45;53.33;100998.22;4997781;28;20034;-87
2023/08/12 01:17:14;;;;;;;11.93;4.15;;;;;;;23.47;53.38;101009.00;4991399;28;20038;-87
2023/08/12 01:19:40;;;;;;;8.73;5.60;;;;;;;23.45;54.13;101000.13;4994238;28;20034;-87
2023/08/12 01:22:12;;;;;;;9.95;5.55;;;;;;;23.50;55.52;101008.59;4998433;28;20012;-86
2023/08/12 01:24:40;;;;;;;15.15;6.47;;;;;;;23.46;56.63;101002.66;4999634;28;20046;-87
2023/08/12 01:27:07;;;;;;;10.68;6.05;;;;;;;23.44;57.15;101003.91;4999905;28;20045;-87
2023/08/12 01:29:34;;;;;;;12.68;6.07;;;;;;;23.39;57.28;101007.25;4999853;28;20033;-86
2023/08/12 01:32:23;;;;;;;14.95;5.70;;;;;;;23.35;56.08;101008.66;4994047;28;20082;-88
2023/08/12 01:34:52;;;;;;;16.80;5.80;;;;;;;23.34;56.14;101001.47;4974180;28;20062;-87
2023/08/12 01:37:44;;;;;;;14.45;6.13;;;;;;;23.35;55.90;101005.06;4983347;28;20451;-86
2023/08/12 01:40:11;;;;;;;14.25;4.45;;;;;;;23.31;55.57;101010.09;4920195;29;20044;-87
2023/08/12 01:42:39;;;;;;;15.10;5.72;;;;;;;23.25;55.93;100988.94;4919786;29;20055;-87
2023/08/12 01:45:05;;;;;;;13.18;5.38;;;;;;;23.29;55.94;100990.22;4916894;29;20048;-87
2023/08/12 01:47:32;;;;;;;18.55;5.00;;;;;;;23.37;55.56;101001.06;4916118;29;20055;-87
2023/08/12 01:49:57;;;;;;;6.28;4.50;;;;;;;23.38;55.20;101011.00;4914922;29;20127;-87
2023/08/12 01:52:23;;;;;;;13.27;4.90;;;;;;;23.32;55.32;101006.31;4914469;29;20127;-87
2023/08/12 01:54:48;;;;;;;10.25;4.53;;;;;;;23.28;55.20;101002.25;4914919;29;20077;-86
2023/08/12 01:57:13;;;;;;;12.38;4.68;;;;;;;23.10;55.48;100985.41;4915773;29;20078;-86
2023/08/12 01:59:39;;;;;;;13.25;4.78;;;;;;;23.07;55.71;100992.16;4900405;29;20044;-87
2023/08/12 02:02:04;;;;;;;13.57;4.97;;;;;;;23.06;56.16;100995.94;4915866;29;20576;-86
2023/08/12 02:04:30;;;;;;;6.47;4.40;;;;;;;23.00;56.10;100987.63;4914900;29;20107;-86
2023/08/12 02:06:56;;;;;;;10.32;5.28;;;;;;;22.93;56.67;101008.69;4914627;29;20036;-86
2023/08/12 02:09:22;;;;;;;12.70;4.68;;;;;;;22.94;56.83;101015.84;4914238;29;20043;-86
2023/08/12 02:11:49;;;;;;;7.95;4.90;;;;;;;22.89;56.90;101010.97;4915513;29;20381;-86
2023/08/12 02:14:15;;;;;;;14.20;4.53;;;;;;;22.92;57.02;101009.72;4915335;29;20468;-86
2023/08/12 02:16:41;;;;;;;26.88;5.28;;;;;;;22.90;57.25;101011.81;4938017;28;20450;-86
2023/08/12 02:19:06;;;;;;;8.77;4.45;;;;;;;22.95;57.45;101015.69;4975642;28;20023;-86
2023/08/12 02:21:32;;;;;;;14.82;4.75;;;;;;;22.96;57.20;101020.13;4977272;28;20566;-87
2023/08/12 02:23:57;;;;;;;14.07;5.72;;;;;;;22.95;57.44;101014.81;4977051;28;20027;-87
2023/08/12 02:26:23;;;;;;;12.15;5.50;;;;;;;22.99;57.36;101022.47;4975463;28;20056;-87
2023/08/12 02:28:49;;;;;;;11.43;5.35;;;;;;;22.98;57.28;101026.25;4996209;28;20082;-85
2023/08/12 02:31:16;;;;;;;9.60;5.05;;;;;;;22.94;57.55;101015.84;4997178;28;20023;-87
2023/08/12 02:33:41;;;;;;;20.00;5.00;;;;;;;22.91;57.69;101011.63;4996542;28;20051;-86
2023/08/12 02:36:07;;;;;;;26.77;5.20;;;;;;;22.89;58.05;101013.72;4989623;28;20023;-87
2023/08/12 02:38:34;;;;;;;14.43;5.78;;;;;;;22.90;57.94;101025.53;4990779;28;20046;-86
2023/08/12 02:40:59;;;;;;;8.68;5.20;;;;;;;22.90;57.91;101028.28;4987304;28;20058;-87
2023/08/12 02:43:25;;;;;;;16.88;5.75;;;;;;;22.82;58.12;101009.19;4975276;28;20460;-87
2023/08/12 02:45:51;;;;;;;9.90;5.18;;;;;;;22.86;58.34;101026.97;4974803;28;20503;-86
2023/08/12 02:48:16;;;;;;;12.45;5.25;;;;;;;22.90;58.35;101028.28;4997667;28;20035;-87
2023/08/12 02:50:42;;;;;;;15.18;6.45;;;;;;;22.88;58.12;101025.72;4983582;28;20035;-87
2023/08/12 02:53:08;;;;;;;8.23;5.10;;;;;;;22.93;58.14;101038.88;4973956;28;20077;-86
2023/08/12 02:55:33;;;;;;;9.18;5.40;;;;;;;22.81;58.50;101027.56;4972660;28;20035;-88
2023/08/12 02:57:59;;;;;;;13.13;5.50;;;;;;;22.82;58.46;101022.91;4972872;28;20089;-86
2023/08/12 03:00:25;;;;;;;13.52;5.55;;;;;;;22.73;58.79;101023.03;4971277;28;20717;-87
2023/08/12 03:02:50;;;;;;;15.35;5.53;;;;;;;22.75;58.94;101025.59;4972804;28;20134;-87
2023/08/12 03:05:16;;;;;;;9.95;5.90;;;;;;;22.65;59.03;101016.81;4973144;28;20050;-87
2023/08/12 03:07:41;;;;;;;10.10;6.05;;;;;;;22.60;59.29;101013.75;4972559;28;20023;-87
2023/08/12 03:10:07;;;;;;;9.90;6.10;;;;;;;22.56;59.32;101016.06;4970863;28;20050;-87
2023/08/12 03:12:33;;;;;;;15.57;5.97;;;;;;;22.45;59.32;101002.00;4972378;28;20031;-87
2023/08/12 03:14:58;;;;;;;14.63;5.57;;;;;;;22.58;59.26;101019.47;4972301;28;20030;-87
2023/08/12 03:17:24;;;;;;;10.65;6.10;;;;;;;22.49;59.52;101017.03;4972609;28;20110;-87
2023/08/12 03:19:49;;;;;;;10.30;6.20;;;;;;;22.42;59.64;101013.34;4972692;28;20035;-87
2023/08/12 03:22:15;;;;;;;13.77;6.45;;;;;;;22.46;59.65;101021.00;4980360;28;20034;-89
2023/08/12 03:24:40;;;;;;;12.65;5.75;;;;;;;22.40;59.69;101016.28;4987516;28;20061;-87
2023/08/12 03:27:06;;;;;;;12.73;6.10;;;;;;;22.38;59.79;101023.88;4990269;28;20089;-87
2023/08/12 03:29:31;;;;;;;7.18;5.53;;;;;;;22.37;59.92;101033.13;4976674;28;20057;-88
2023/08/12 03:31:57;;;;;;;12.50;5.47;;;;;;;22.41;60.01;101039.94;4972262;28;20072;-87
2023/08/12 03:34:22;;;;;;;13.05;5.65;;;;;;;22.36;59.89;101022.31;4969357;28;20053;-87
2023/08/12 03:36:48;;;;;;;11.30;5.95;;;;;;;22.24;60.37;101022.81;4969340;28;20045;-86
2023/08/12 03:39:14;;;;;;;9.93;5.43;;;;;;;22.23;60.77;101036.75;4969208;28;20042;-87
2023/08/12 03:41:39;;;;;;;11.80;5.93;;;;;;;22.22;60.93;101048.72;4969448;28;20482;-85
2023/08/12 03:44:05;;;;;;;20.58;6.25;;;;;;;22.22;61.17;101046.00;4968854;28;20043;-88
2023/08/12 03:46:31;;;;;;;10.90;5.53;;;;;;;22.18;61.20;101039.19;4953712;28;20063;-87
2023/08/12 03:48:56;;;;;;;15.15;6.05;;;;;;;22.18;61.36;101039.19;4969585;28;20043;-86
2023/08/12 03:51:22;;;;;;;12.75;5.70;;;;;;;22.16;61.60;101052.22;4969523;28;20129;-85
2023/08/12 03:53:47;;;;;;;13.20;6.35;;;;;;;22.17;61.42;101049.28;4969508;28;20105;-88
2023/08/12 03:56:15;;;;;;;33.72;9.75;;;;;;;22.09;61.76;101040.31;4953188;28;20046;-88
2023/08/12 03:58:41;;;;;;;21.38;10.02;;;;;;;22.10;62.03;101042.03;4972212;28;20538;-85
2023/08/12 04:01:06;;;;;;;14.70;6.68;;;;;;;22.20;61.79;101054.38;4995256;28;20095;-87
2023/08/12 04:03:32;;;;;;;10.40;6.28;;;;;;;22.14;62.03;101052.41;4978336;28;20085;-87
2023/08/12 04:05:57;;;;;;;10.30;6.28;;;;;;;22.15;62.06;101047.78;4987337;28;20410;-88
2023/08/12 04:08:23;;;;;;;11.98;7.15;;;;;;;22.11;62.16;101043.72;4993044;28;20098;-87
2023/08/12 04:10:49;;;;;;;10.93;6.75;;;;;;;22.11;62.30;101043.72;4992858;28;20030;-87
2023/08/12 04:13:15;;;;;;;8.20;5.85;;;;;;;22.19;62.40;101051.84;4976978;28;20034;-87
2023/08/12 04:15:41;;;;;;;7.65;5.60;;;;;;;22.18;62.39;101039.19;4993221;28;20034;-87
2023/08/12 04:18:07;;;;;;;11.50;6.30;;;;;;;22.23;62.42;101047.69;4992100;28;20051;-86
2023/08/12 04:20:32;;;;;;;9.32;5.80;;;;;;;22.29;62.10;101059.78;4987354;28;20100;-87
2023/08/12 04:22:58;;;;;;;11.57;6.72;;;;;;;22.25;62.08;101048.34;4980656;28;20081;-86
2023/08/12 04:25:24;;;;;;;14.98;6.32;;;;;;;22.28;62.80;101066.28;4971035;28;20046;-86
2023/08/12 04:27:49;;;;;;;9.98;6.40;;;;;;;22.24;62.67;101061.19;4971999;28;20117;-87
2023/08/12 04:30:18;;;;;;;9.35;6.03;;;;;;;22.25;62.32;101056.56;4969319;28;20131;-87
2023/08/12 04:32:44;;;;;;;15.20;5.97;;;;;;;22.32;62.35;101063.00;4968666;28;20037;-86
2023/08/12 04:35:10;;;;;;;14.48;6.40;;;;;;;22.36;62.62;101074.41;4968672;28;20038;-86
2023/08/12 04:37:36;;;;;;;18.25;6.05;;;;;;;22.41;62.37;101061.00;4969403;28;20033;-87
2023/08/12 04:40:04;;;;;;;12.73;6.50;;;;;;;22.40;62.42;101065.63;4969244;28;20035;-86
2023/08/12 04:42:30;;;;;;;11.60;6.10;;;;;;;22.48;62.27;101073.72;4960620;28;20034;-85
2023/08/12 04:44:55;;;;;;;11.80;6.82;;;;;;;22.54;62.13;101069.38;4964259;28;20042;-86
2023/08/12 04:47:21;;;;;;;17.77;7.05;;;;;;;22.52;62.28;101072.31;4969726;28;20065;-86
2023/08/12 04:49:46;;;;;;;23.45;8.80;;;;;;;22.64;62.06;101087.25;4970319;28;20031;-87
2023/08/12 04:52:12;;;;;;;17.85;6.68;;;;;;;22.78;61.51;101080.88;4970578;28;20038;-86
2023/08/12 04:54:37;;;;;;;11.73;6.18;;;;;;;22.84;61.17;101084.78;4970895;28;20173;-88
2023/08/12 04:57:03;;;;;;;21.73;7.80;;;;;;;22.85;60.90;101069.16;4971137;28;20034;-86
2023/08/12 04:59:28;;;;;;;18.67;6.85;;;;;;;23.05;60.48;101089.44;4970971;28;20125;-86
2023/08/12 05:01:54;;;;;;;11.90;6.68;;;;;;;23.18;60.65;101086.81;4970912;28;20034;-86
2023/08/12 05:04:19;;;;;;;10.05;6.15;;;;;;;23.27;60.16;101088.41;4970874;28;20085;-86
2023/08/12 05:06:45;;;;;;;9.77;5.78;;;;;;;23.33;59.46;101082.97;4969606;28;20403;-90
2023/08/12 05:09:10;;;;;;;15.35;6.97;;;;;;;23.46;59.38;101098.75;4970927;28;20030;-78
2023/08/12 05:11:36;;;;;;;12.48;5.78;;;;;;;23.56;58.85;101093.78;4970888;28;20038;-77
2023/08/12 05:14:04;;;;;;;17.80;6.55;;;;;;;23.61;58.22;101082.19;4970794;28;20419;-82
2023/08/12 05:16:29;;;;;;;15.95;7.10;;;;;;;23.66;58.59;101083.31;4970668;28;20031;-82
2023/08/12 05:18:55;;;;;;;14.77;5.32;;;;;;;23.75;58.00;101084.84;4968359;28;20094;-91
2023/08/12 05:21:20;;;;;;;17.48;6.50;;;;;;;23.81;57.15;101084.06;4969693;28;20114;-79
2023/08/12 05:23:46;;;;;;;10.45;6.32;;;;;;;23.89;57.62;101083.03;4969896;28;20030;-79
2023/08/12 05:26:11;;;;;;;22.25;6.10;;;;;;;24.01;57.32;101097.06;4970005;28;20037;-79
2023/08/12 05:28:37;;;;;;;14.73;5.82;;;;;;;24.12;56.88;101097.41;4969994;28;20104;-84
2023/08/12 05:31:02;;;;;;;19.88;7.03;;;;;;;24.22;56.51;101097.03;4969936;28;20027;-82
2023/08/12 05:33:28;;;;;;;18.33;6.65;;;;;;;24.25;56.38;101082.88;4968600;28;20641;-80
2023/08/12 05:35:53;;;;;;;13.93;6.93;;;;;;;24.36;56.01;101099.69;4969609;28;20026;-83
2023/08/12 05:38:19;;;;;;;22.98;7.70;;;;;;;24.46;55.87;101096.56;4969430;28;20091;-81
2023/08/12 05:40:44;;;;;;;24.35;6.72;;;;;;;24.52;55.56;101098.50;4969600;28;20081;-76
2023/08/12 05:43:09;;;;;;;11.40;5.72;;;;;;;24.61;55.59;101100.03;4969692;28;20031;-82
2023/08/12 05:45:35;;;;;;;29.67;7.65;;;;;;;24.72;54.86;101107.69;4969668;28;20090;-82
2023/08/12 05:48:00;;;;;;;16.27;6.07;;;;;;;24.71;54.98;101086.72;4969626;28;20031;-80
2023/08/12 05:50:26;;;;;;;22.42;5.72;;;;;;;24.87;54.61;101100.16;4968290;28;20035;-80
2023/08/12 05:52:51;;;;;;;14.43;6.30;;;;;;;24.88;54.47;101090.84;4967872;28;20039;-84
2023/08/12 05:55:16;;;;;;;13.35;5.82;;;;;;;25.05;54.05;101105.06;4969784;28;20039;-83
2023/08/12 05:57:42;;;;;;;22.35;5.80;;;;;;;25.15;53.46;101101.91;4970173;28;20110;-78
2023/08/12 06:00:08;;;;;;;12.27;5.13;;;;;;;25.19;52.38;101101.31;4971242;28;20039;-84
2023/08/12 06:02:33;;;;;;;22.58;7.38;;;;;;;25.28;52.32;101089.03;4973116;28;20030;-87
2023/08/12 06:04:59;;;;;;;8.13;5.13;;;;;;;25.39;52.15;101095.81;4974544;28;20053;-89
2023/08/12 06:07:24;;;;;;;13.30;5.45;;;;;;;25.46;51.81;101091.16;4973831;28;20411;-85
2023/08/12 06:09:50;;;;;;;9.60;5.43;;;;;;;25.53;51.79;101092.06;4974915;28;20530;-87
2023/08/12 06:12:16;;;;;;;25.08;6.47;;;;;;;25.61;51.34;101091.00;4975244;28;20030;-91
2023/08/12 06:14:41;;;;;;;8.23;5.13;;;;;;;25.76;50.89;101092.47;4973316;28;20033;-85
2023/08/12 06:17:07;;;;;;;20.75;5.80;;;;;;;25.84;50.70;101100.53;4973175;28;20498;-78
2023/08/12 06:19:33;;;;;;;14.43;5.50;;;;;;;25.83;50.62;101085.06;4989890;28;20034;-85
2023/08/12 06:21:58;;;;;;;17.10;5.60;;;;;;;25.94;50.42;101089.91;5000624;28;20041;-88
2023/08/12 06:24:24;;;;;;;17.40;5.57;;;;;;;26.09;49.86;101094.34;4998983;28;20030;-85
2023/08/12 06:26:50;;;;;;;17.02;5.43;;;;;;;26.14;50.21;101089.91;4993071;28;20034;-85
2023/08/12 06:29:15;;;;;;;12.88;5.45;;;;;;;26.17;50.21;101077.63;4992564;28;20027;-85
2023/08/12 06:31:41;;;;;;;17.25;5.50;;;;;;;26.27;49.66;101078.84;4991384;28;20054;-80
2023/08/12 06:34:07;;;;;;;19.13;6.13;;;;;;;26.41;49.52;101091.56;4994694;28;20030;-85
2023/08/12 06:36:32;;;;;;;14.10;5.65;;;;;;;26.49;48.57;101084.94;4996497;28;20030;-94
2023/08/12 06:38:58;;;;;;;16.98;5.47;;;;;;;26.45;48.86;101069.91;5009946;28;20046;-86
2023/08/12 06:41:23;;;;;;;15.82;6.15;;;;;;;26.58;48.83;101080.88;4999046;28;20121;-82
2023/08/12 06:43:49;;;;;;;14.95;5.55;;;;;;;26.67;48.75;101078.69;4991816;28;20112;-79
2023/08/12 06:46:15;;;;;;;11.88;5.40;;;;;;;26.76;48.24;101078.25;4993423;28;20104;-88
2023/08/12 06:48:40;;;;;;;18.25;5.57;;;;;;;26.77;47.90;101063.38;4992870;28;20461;-80
2023/08/12 06:51:10;;;;;;;14.75;5.85;;;;;;;26.88;47.87;101079.28;4993416;28;20041;-88
2023/08/12 06:53:37;;;;;;;22.20;6.13;;;;;;;26.97;47.03;101068.84;4993222;28;20037;-78
2023/08/12 06:56:03;;;;;;;14.68;6.60;;;;;;;27.08;46.98;101061.75;4992036;28;20030;-81
2023/08/12 06:58:28;;;;;;;23.08;10.13;;;;;;;27.15;46.54;101070.84;4991692;28;20109;-84
2023/08/12 07:00:53;;;;;;;16.63;6.10;;;;;;;27.25;46.43;101071.19;4992521;28;20042;-87
2023/08/12 07:03:19;;;;;;;28.30;6.18;;;;;;;27.28;46.50;101070.75;4993332;28;20029;-85
2023/08/12 07:05:44;;;;;;;14.70;5.90;;;;;;;27.39;46.31;101065.38;4992723;28;20026;-80
2023/08/12 07:08:10;;;;;;;18.65;5.32;;;;;;;27.49;45.98;101073.19;4992941;28;20057;-86
2023/08/12 07:10:40;;;;;;;19.40;6.10;;;;;;;27.55;45.68;101069.53;4993675;28;20117;-81
2023/08/12 07:13:05;;;;;;;19.05;6.25;;;;;;;27.70;45.66;101069.19;4992609;28;20027;-80
2023/08/12 07:15:31;;;;;;;13.40;6.50;;;;;;;27.73;44.88;101058.53;4998379;28;20076;-80
2023/08/12 07:17:57;;;;;;;29.17;5.47;;;;;;;27.83;44.81;101067.13;5006340;28;20043;-80
2023/08/12 07:20:24;;;;;;;16.10;6.38;;;;;;;27.92;44.60;101073.25;5004750;28;20512;-79
2023/08/12 07:22:49;;;;;;;8.25;4.80;;;;;;;27.87;45.09;101059.22;4999262;28;20058;-79
2023/08/12 07:25:15;;;;;;;10.80;5.80;;;;;;;27.85;45.35;101070.53;4991088;28;20026;-79
2023/08/12 07:27:41;;;;;;;15.15;5.35;;;;;;;27.93;45.62;101069.38;4992414;28;20042;-78
2023/08/12 07:30:07;;;;;;;32.78;8.77;;;;;;;27.96;45.93;101069.78;4992994;28;20033;-79
2023/08/12 07:32:33;;;;;;;11.98;5.95;;;;;;;27.93;45.84;101073.00;4991094;28;20037;-79
2023/08/12 07:34:59;;;;;;;31.30;6.75;;;;;;;27.80;46.34;101058.44;4990959;28;20494;-81
2023/08/12 07:37:25;;;;;;;11.90;5.90;;;;;;;27.73;46.41;101064.06;4990830;28;20033;-79
2023/08/12 07:39:50;;;;;;;14.32;6.10;;;;;;;27.73;46.31;101066.81;4991170;28;20022;-80
2023/08/12 07:42:16;;;;;;;13.75;6.22;;;;;;;27.82;45.84;101057.16;4990807;28;20034;-79
2023/08/12 07:44:41;;;;;;;20.27;6.30;;;;;;;27.93;45.74;101061.94;4991129;28;20030;-78
2023/08/12 07:47:06;;;;;;;14.73;5.63;;;;;;;27.94;45.24;101058.09;4994493;28;20638;-80
2023/08/12 07:49:32;;;;;;;26.35;8.60;;;;;;;28.04;45.06;101055.66;4990970;28;20430;-79
2023/08/12 07:51:57;;;;;;;18.98;6.03;;;;;;;28.03;45.50;101059.50;4991114;28;20030;-80
2023/08/12 07:54:23;;;;;;;14.02;6.28;;;;;;;28.01;45.95;101063.56;4990754;28;20030;-80
2023/08/12 07:56:48;;;;;;;15.85;7.40;;;;;;;28.13;45.83;101064.53;4991167;28;20065;-80
2023/08/12 07:59:14;;;;;;;12.93;5.72;;;;;;;28.16;45.31;101068.75;4992580;28;20037;-80
2023/08/12 08:01:39;;;;;;;14.88;6.40;;;;;;;28.13;45.22;101058.16;4998141;28;20019;-79
2023/08/12 08:04:05;;;;;;;18.98;5.93;;;;;;;27.94;45.76;101047.03;4990109;28;20026;-80
2023/08/12 08:06:31;;;;;;;13.68;5.65;;;;;;;27.97;45.81;101049.34;4990217;28;20042;-79
2023/08/12 08:08:56;;;;;;;40.22;7.38;;;;;;;27.85;45.91;101048.41;4971461;28;20038;-80
2023/08/12 08:11:24;;;;;;;19.27;6.03;;;;;;;27.89;45.28;101052.41;4990249;28;20034;-80
2023/08/12 08:13:49;;;;;;;9.90;5.65;;;;;;;27.84;44.97;101046.72;4990101;28;20480;-80
2023/08/12 08:16:15;;;;;;;17.73;5.07;;;;;;;27.95;45.67;101057.00;4990309;28;20034;-80
2023/08/12 08:18:40;;;;;;;19.73;6.13;;;;;;;27.77;46.31;101054.22;4990616;28;20053;-79
2023/08/12 08:21:05;;;;;;;11.95;5.70;;;;;;;27.84;46.23;101054.16;4989996;28;20037;-79
2023/08/12 08:23:31;;;;;;;12.43;5.40;;;;;;;27.81;46.12;101058.22;4990621;28;20485;-80
2023/08/12 08:25:56;;;;;;;14.88;5.60;;;;;;;27.89;46.35;101057.06;4990147;28;20038;-79
2023/08/12 08:28:23;;;;;;;21.98;6.20;;;;;;;27.90;47.09;101059.63;4989713;28;20057;-79
2023/08/12 08:30:48;;;;;;;13.23;6.38;;;;;;;27.97;46.44;101060.41;4990119;28;20045;-79
2023/08/12 08:33:14;;;;;;;22.98;6.63;;;;;;;28.05;46.43;101062.06;4990012;28;20418;-79
2023/08/12 08:35:39;;;;;;;19.27;6.07;;;;;;;28.12;46.15;101062.00;4990088;28;20030;-82
2023/08/12 08:38:05;;;;;;;24.20;5.72;;;;;;;28.08;46.27;101059.69;4990445;28;20054;-79
2023/08/12 08:40:30;;;;;;;10.32;5.00;;;;;;;27.98;45.91;101039.97;4988781;28;20113;-80
2023/08/12 08:43:03;;;;;;;16.10;5.85;;;;;;;28.03;45.52;101053.97;4989633;28;20045;-79
2023/08/12 08:45:32;;;;;;;21.77;5.70;;;;;;;28.00;45.06;101048.03;4989322;28;20112;-79
2023/08/12 08:48:02;;;;;;;12.95;5.20;;;;;;;28.10;44.65;101054.75;4989389;28;20045;-79
2023/08/12 08:50:30;;;;;;;11.77;5.07;;;;;;;28.01;44.06;101039.50;4989614;28;20030;-81
2023/08/12 08:52:56;;;;;;;9.73;4.28;;;;;;;27.97;44.08;101049.34;4988250;28;20030;-79
2023/08/12 08:55:22;;;;;;;12.50;4.53;;;;;;;27.84;45.06;101043.94;4989800;28;20089;-79
2023/08/12 08:57:48;;;;;;;16.75;6.03;;;;;;;28.09;45.09;101055.84;4989712;28;20026;-81
2023/08/12 09:00:18;;;;;;;8.30;4.70;;;;;;;28.03;45.78;101047.59;4989892;28;20056;-80
2023/08/12 09:02:46;;;;;;;8.65;5.20;;;;;;;27.86;46.60;101052.00;4990689;28;20590;-79
2023/08/12 09:05:14;;;;;;;15.52;5.72;;;;;;;27.86;47.33;101044.56;4990378;28;20027;-80
2023/08/12 09:07:40;;;;;;;11.38;5.63;;;;;;;27.89;47.26;101046.88;4989803;28;20045;-79
2023/08/12 09:10:07;;;;;;;10.80;4.70;;;;;;;27.90;47.57;101048.56;4989572;28;20030;-80
2023/08/12 09:12:33;;;;;;;12.40;4.97;;;;;;;27.87;47.76;101059.22;4989908;28;20030;-79
2023/08/12 09:14:59;;;;;;;14.40;6.15;;;;;;;27.86;48.62;101055.63;4989678;28;20065;-80
2023/08/12 09:17:24;;;;;;;13.77;4.80;;;;;;;27.85;49.27;101055.84;4989949;28;20121;-81
2023/08/12 09:19:50;;;;;;;26.35;7.38;;;;;;;27.94;50.06;101043.44;4989714;28;20169;-82
2023/08/12 09:22:17;;;;;;;23.48;6.28;;;;;;;28.02;48.99;101055.03;4989565;28;20557;-83
2023/08/12 09:24:43;;;;;;;10.57;5.10;;;;;;;28.08;48.48;101045.84;4989844;28;20026;-79
2023/08/12 09:27:08;;;;;;;19.73;5.07;;;;;;;27.98;46.55;101039.97;4988080;28;20516;-80
2023/08/12 09:29:35;;;;;;;13.88;5.20;;;;;;;27.93;47.30;101047.25;4989757;28;20034;-79
2023/08/12 09:32:09;;;;;;;13.18;5.55;;;;;;;27.91;48.35;101050.25;4989044;28;20037;-83
2023/08/12 09:34:36;;;;;;;7.90;4.90;;;;;;;27.93;48.52;101050.88;4990088;28;20032;-81
2023/08/12 09:37:01;;;;;;;30.58;7.97;;;;;;;27.94;49.10;101033.22;4993478;28;20041;-79
2023/08/12 09:39:29;;;;;;;19.27;5.68;;;;;;;27.97;48.62;101031.91;4993495;28;20022;-81
2023/08/12 09:41:55;;;;;;;8.63;5.40;;;;;;;28.03;48.80;101037.38;4992806;28;20101;-83
2023/08/12 09:44:22;;;;;;;15.77;5.55;;;;;;;27.94;48.58;101035.97;4992736;28;20038;-80
2023/08/12 09:46:48;;;;;;;18.45;6.10;;;;;;;28.09;48.22;101047.56;4992965;28;20073;-81
2023/08/12 09:49:13;;;;;;;12.35;5.05;;;;;;;28.20;47.00;101031.25;4994456;28;20066;-90
2023/08/12 09:51:41;;;;;;;19.17;5.88;;;;;;;28.32;47.01;101016.41;4992685;28;20065;-85
2023/08/12 09:54:10;;;;;;;11.98;4.63;;;;;;;28.48;48.26;101012.19;4993525;28;20030;-83
2023/08/12 09:56:37;;;;;;;17.23;5.40;;;;;;;28.55;49.41;101024.03;4993439;28;20027;-90
2023/08/12 09:59:07;;;;;;;53.42;12.00;;;;;;;28.68;50.30;101031.34;5004687;28;20062;-84
2023/08/12 10:01:33;;;;;;;12.15;5.88;;;;;;;28.58;50.80;101020.78;4970198;28;20145;-85
2023/08/12 10:03:58;;;;;;;12.27;5.07;;;;;;;28.60;50.08;101022.22;5004852;28;20018;-82
2023/08/12 10:06:24;;;;;;;11.45;5.03;;;;;;;28.72;50.42;101022.31;4986671;28;20133;-82
2023/08/12 10:08:50;;;;;;;32.78;6.95;;;;;;;28.71;51.02;101019.78;5001260;28;20027;-83
2023/08/12 10:11:16;;;;;;;11.38;5.38;;;;;;;28.76;50.66;101018.00;4999342;28;20032;-83
2023/08/12 10:13:42;;;;;;;32.47;6.75;;;;;;;28.88;51.68;101013.34;5005144;28;20034;-83
2023/08/12 10:16:09;;;;;;;8.82;5.63;;;;;;;28.92;51.09;101013.75;5002501;28;20057;-84
2023/08/12 10:18:36;;;;;;;25.65;6.05;;;;;;;29.05;51.22;101008.00;5002698;28;20029;-83
2023/08/12 10:21:02;;;;;;;11.82;5.68;;;;;;;29.17;50.88;101000.56;5005175;28;20494;-84
2023/08/12 10:23:29;;;;;;;16.08;5.88;;;;;;;29.16;49.76;100996.09;5002099;28;20018;-84
2023/08/12 10:25:55;;;;;;;17.08;5.13;;;;;;;29.29;50.25;100995.06;4992413;28;20065;-84
2023/08/12 10:28:20;;;;;;;15.18;5.18;;;;;;;29.37;49.96;101000.25;4993567;28;20030;-84
2023/08/12 10:30:46;;;;;;;17.58;6.05;;;;;;;29.32;49.64;100978.81;4998026;28;20796;-81
2023/08/12 10:33:16;;;;;;;10.95;6.05;;;;;;;29.41;49.44;100993.16;4997160;28;20027;-81
2023/08/12 10:35:47;;;;;;;11.30;4.80;;;;;;;29.35;48.96;100992.19;5002304;28;20037;-86
2023/08/12 10:38:20;;;;;;;26.85;5.20;;;;;;;29.52;48.19;101004.25;4991932;28;20030;-77
2023/08/12 10:40:46;;;;;;;14.75;5.05;;;;;;;29.66;47.62;100999.31;4991364;28;20027;-77
2023/08/12 10:43:13;;;;;;;34.08;7.38;;;;;;;29.64;47.78;100996.78;4994159;28;20029;-82
2023/08/12 10:45:57;;;;;;;16.92;7.53;;;;;;;29.76;47.76;100993.16;4997652;28;20050;-81
2023/08/12 10:48:25;;;;;;;11.68;5.18;;;;;;;29.76;47.71;100991.22;4994963;28;20061;-80
2023/08/12 10:50:55;;;;;;;10.60;4.25;;;;;;;29.85;47.67;100992.59;4993048;28;20034;-81
2023/08/12 10:53:29;;;;;;;30.00;6.90;;;;;;;29.85;47.49;101002.81;4993462;28;20027;-79
2023/08/12 10:55:56;;;;;;;11.15;5.20;;;;;;;29.75;47.64;100997.03;4991916;28;20065;-76
2023/08/12 10:58:45;;;;;;;23.52;5.00;;;;;;;29.78;47.87;100991.84;4991734;28;20457;-80
2023/08/12 11:01:17;;;;;;;9.27;4.38;;;;;;;29.68;47.25;100977.75;4931374;29;20043;-81
2023/08/12 11:03:43;;;;;;;20.10;4.75;;;;;;;29.85;46.98;100987.03;4943209;29;20039;-85
2023/08/12 11:06:12;;;;;;;22.40;5.07;;;;;;;29.95;45.99;100997.53;4953509;29;20047;-86
2023/08/12 11:08:51;;;;;;;15.60;4.30;;;;;;;29.93;45.02;100989.47;4952091;29;20048;-85
2023/08/12 11:11:23;;;;;;;13.20;4.97;;;;;;;30.02;44.55;100996.31;4953141;29;20106;-84
2023/08/12 11:13:58;;;;;;;;;;;;;;;30.08;44.62;100987.03;4935949;29;20059;-83
2023/08/12 11:16:35;;;;;;;13.43;5.53;;;;;;;30.10;43.45;100995.94;4938331;29;19910;-81